createdAt,value
2019-01-11T00:00:54.472Z,75.76
2019-01-11T00:01:54.467Z,75.47
2019-01-11T00:02:54.489Z,75.38
2019-01-11T00:03:54.492Z,75.09
2019-01-11T00:04:54.528Z,74.90
2019-01-11T00:05:54.528Z,74.43
2019-01-11T00:06:54.525Z,74.52
2019-01-11T00:07:54.562Z,75.00
2019-01-11T00:08:54.594Z,74.33
2019-01-11T00:09:54.564Z,74.52
2019-01-11T00:10:54.575Z,74.62
2019-01-11T00:11:54.663Z,74.43
2019-01-11T00:12:54.668Z,74.71
2019-01-11T00:13:54.610Z,75.00
2019-01-11T00:14:54.631Z,74.90
2019-01-11T00:15:54.737Z,75.47
2019-01-11T00:16:54.664Z,75.47
2019-01-11T00:17:54.691Z,74.71
2019-01-11T00:18:54.694Z,75.28
2019-01-11T00:19:54.710Z,74.62
2019-01-11T00:20:54.762Z,74.90
2019-01-11T00:21:54.745Z,74.90
2019-01-11T00:22:54.739Z,75.28
2019-01-11T00:23:54.759Z,75.57
2019-01-11T00:24:54.767Z,75.38
2019-01-11T00:25:54.803Z,75.38
2019-01-11T00:26:54.793Z,75.57
2019-01-11T00:27:54.813Z,75.57
2019-01-11T00:28:54.877Z,76.04
2019-01-11T00:29:54.845Z,76.42
2019-01-11T00:30:54.866Z,76.32
2019-01-11T00:31:54.874Z,76.80
2019-01-11T00:32:54.880Z,77.08
2019-01-11T00:33:54.890Z,77.37
2019-01-11T00:34:54.904Z,77.08
2019-01-11T00:35:54.955Z,77.46
2019-01-11T00:36:54.936Z,77.56
2019-01-11T00:37:54.943Z,77.65
2019-01-11T00:38:54.964Z,77.65
2019-01-11T00:39:54.994Z,77.46
2019-01-11T00:40:54.990Z,77.69
2019-01-11T00:41:55.051Z,78.22
2019-01-11T00:42:55.041Z,78.03
2019-01-11T00:43:55.029Z,78.26
2019-01-11T00:44:55.080Z,78.73
2019-01-11T00:45:55.104Z,78.54
2019-01-11T00:46:55.069Z,78.59
2019-01-11T00:47:55.099Z,77.18
2019-01-11T00:48:55.139Z,77.46
2019-01-11T00:49:55.143Z,77.84
2019-01-11T00:50:55.154Z,77.65
2019-01-11T00:51:55.197Z,78.22
2019-01-11T00:52:55.174Z,77.08
2019-01-11T00:53:55.200Z,75.95
2019-01-11T00:54:55.201Z,75.38
2019-01-11T00:55:55.193Z,75.47
2019-01-11T00:56:55.230Z,75.47
2019-01-11T00:57:55.250Z,74.90
2019-01-11T00:58:55.246Z,75.47
2019-01-11T00:59:55.265Z,75.38
2019-01-11T01:00:55.291Z,75.95
2019-01-11T01:01:55.303Z,75.66
2019-01-11T01:02:55.325Z,75.66
2019-01-11T01:03:55.337Z,74.33
2019-01-11T01:04:55.338Z,73.68
2019-01-11T01:05:55.343Z,73.96
2019-01-11T01:06:55.348Z,74.71
2019-01-11T01:07:55.368Z,74.24
2019-01-11T01:08:55.384Z,73.58
2019-01-11T01:09:55.394Z,73.77
2019-01-11T01:10:55.426Z,74.33
2019-01-11T01:11:55.496Z,74.62
2019-01-11T01:12:55.431Z,74.33
2019-01-11T01:13:55.445Z,74.62
2019-01-11T01:14:55.470Z,73.96
2019-01-11T01:15:55.505Z,74.33
2019-01-11T01:16:55.521Z,74.15
2019-01-11T01:17:55.554Z,73.96
2019-01-11T01:18:55.556Z,74.43
2019-01-11T01:19:55.561Z,73.96
2019-01-11T01:20:55.552Z,74.43
2019-01-11T01:21:55.572Z,74.52
2019-01-11T01:22:55.567Z,73.96
2019-01-11T01:23:55.595Z,74.71
2019-01-11T01:24:55.595Z,74.52
2019-01-11T01:25:55.611Z,74.71
2019-01-11T01:26:55.624Z,74.24
2019-01-11T01:27:55.654Z,74.52
2019-01-11T01:28:55.660Z,74.90
2019-01-11T01:29:55.679Z,75.76
2019-01-11T01:30:55.688Z,74.90
2019-01-11T01:31:55.702Z,75.19
2019-01-11T01:32:55.754Z,75.19
2019-01-11T01:33:55.727Z,75.38
2019-01-11T01:34:55.820Z,75.76
2019-01-11T01:35:55.749Z,75.85
2019-01-11T01:36:55.815Z,76.32
2019-01-11T01:37:55.774Z,76.08
2019-01-11T01:38:55.811Z,76.93
2019-01-11T01:39:55.808Z,76.51
2019-01-11T01:40:55.824Z,76.80
2019-01-11T01:41:55.854Z,76.32
2019-01-11T01:42:55.868Z,76.23
2019-01-11T01:43:55.873Z,76.89
2019-01-11T01:44:55.874Z,76.65
2019-01-11T01:45:55.906Z,76.65
2019-01-11T01:46:55.905Z,77.03
2019-01-11T01:47:55.957Z,77.59
2019-01-11T01:48:55.993Z,77.59
2019-01-11T01:49:55.969Z,77.50
2019-01-11T01:50:55.966Z,77.50
2019-01-11T01:51:55.975Z,77.22
2019-01-11T01:52:55.990Z,76.74
2019-01-11T01:53:56.018Z,77.59
2019-01-11T01:54:56.038Z,77.50
2019-01-11T01:55:56.043Z,77.69
2019-01-11T01:56:56.060Z,76.99
2019-01-11T01:57:56.121Z,77.69
2019-01-11T01:58:56.081Z,77.65
2019-01-11T01:59:56.137Z,76.93
2019-01-11T02:00:56.115Z,76.99
2019-01-11T02:01:56.143Z,77.12
2019-01-11T02:02:56.170Z,76.55
2019-01-11T02:03:56.143Z,75.66
2019-01-11T02:04:56.163Z,75.47
2019-01-11T02:05:56.172Z,75.09
2019-01-11T02:06:56.231Z,75.00
2019-01-11T02:07:56.204Z,74.24
2019-01-11T02:08:56.219Z,74.62
2019-01-11T02:09:56.245Z,75.00
2019-01-11T02:10:56.241Z,75.38
2019-01-11T02:11:56.268Z,75.00
2019-01-11T02:12:56.275Z,75.66
2019-01-11T02:13:56.285Z,75.42
2019-01-11T02:14:56.325Z,76.42
2019-01-11T02:15:56.350Z,76.23
2019-01-11T02:16:56.322Z,76.32
2019-01-11T02:17:56.393Z,74.52
2019-01-11T02:18:56.367Z,74.43
2019-01-11T02:19:56.379Z,75.19
2019-01-11T02:20:56.397Z,75.57
2019-01-11T02:21:56.408Z,76.32
2019-01-11T02:22:56.438Z,76.32
2019-01-11T02:23:56.438Z,75.57
2019-01-11T02:24:56.472Z,75.66
2019-01-11T02:25:56.467Z,74.43
2019-01-11T02:26:56.460Z,73.58
2019-01-11T02:27:56.494Z,73.96
2019-01-11T02:28:56.502Z,74.62
2019-01-11T02:29:56.510Z,74.43
2019-01-11T02:30:56.592Z,74.24
2019-01-11T02:31:56.534Z,74.24
2019-01-11T02:32:56.557Z,73.58
2019-01-11T02:33:56.567Z,72.82
2019-01-11T02:34:56.590Z,72.92
2019-01-11T02:35:56.600Z,73.49
2019-01-11T02:36:56.610Z,74.33
2019-01-11T02:37:56.624Z,73.96
2019-01-11T02:38:56.663Z,73.30
2019-01-11T02:39:56.678Z,73.30
2019-01-11T02:40:56.735Z,73.20
2019-01-11T02:41:56.682Z,73.30
2019-01-11T02:42:56.692Z,72.44
2019-01-11T02:43:56.708Z,71.69
2019-01-11T02:44:56.734Z,71.78
2019-01-11T02:45:56.729Z,71.88
2019-01-11T02:46:56.745Z,72.44
2019-01-11T02:47:56.837Z,73.01
2019-01-11T02:48:56.779Z,73.96
2019-01-11T02:49:56.825Z,73.77
2019-01-11T02:50:56.818Z,73.58
2019-01-11T02:51:56.852Z,73.77
2019-01-11T02:52:56.924Z,73.39
2019-01-11T02:53:56.901Z,73.39
2019-01-11T02:54:56.854Z,74.15
2019-01-11T02:55:56.870Z,74.71
2019-01-11T02:56:56.902Z,73.68
2019-01-11T02:57:56.906Z,73.01
2019-01-11T02:58:56.931Z,72.92
2019-01-11T02:59:56.938Z,74.43
2019-01-11T03:00:56.945Z,74.43
2019-01-11T03:01:56.985Z,74.24
2019-01-11T03:02:56.976Z,72.92
2019-01-11T03:03:56.996Z,71.97
2019-01-11T03:04:56.988Z,72.53
2019-01-11T03:05:57.026Z,73.11
2019-01-11T03:06:57.039Z,73.49
2019-01-11T03:07:57.081Z,73.49
2019-01-11T03:08:57.049Z,72.92
2019-01-11T03:09:57.102Z,72.06
2019-01-11T03:10:57.097Z,73.30
2019-01-11T03:11:57.087Z,72.34
2019-01-11T03:12:57.118Z,72.92
2019-01-11T03:13:57.129Z,73.30
2019-01-11T03:14:57.204Z,73.11
2019-01-11T03:15:57.163Z,73.86
2019-01-11T03:16:57.165Z,74.24
2019-01-11T03:17:57.184Z,73.86
2019-01-11T03:18:57.214Z,73.68
2019-01-11T03:19:57.361Z,73.20
2019-01-11T03:20:57.254Z,72.44
2019-01-11T03:21:57.242Z,73.20
2019-01-11T03:22:57.245Z,73.01
2019-01-11T03:23:57.299Z,72.82
2019-01-11T03:24:57.276Z,73.77
2019-01-11T03:25:57.291Z,73.49
2019-01-11T03:26:57.296Z,73.86
2019-01-11T03:27:57.315Z,72.34
2019-01-11T03:28:57.325Z,73.39
2019-01-11T03:29:57.360Z,73.11
2019-01-11T03:30:57.362Z,72.34
2019-01-11T03:31:57.380Z,72.34
2019-01-11T03:32:57.406Z,73.11
2019-01-11T03:33:57.421Z,73.39
2019-01-11T03:34:57.409Z,74.05
2019-01-11T03:35:57.434Z,73.96
2019-01-11T03:36:57.445Z,74.24
2019-01-11T03:37:57.462Z,74.71
2019-01-11T03:38:57.475Z,74.24
2019-01-11T03:39:58.137Z,73.58
2019-01-11T03:40:57.507Z,73.77
2019-01-11T03:41:57.519Z,73.30
2019-01-11T03:42:57.527Z,73.11
2019-01-11T03:43:57.539Z,73.86
2019-01-11T03:44:57.551Z,73.77
2019-01-11T03:45:57.566Z,73.39
2019-01-11T03:46:57.630Z,73.49
2019-01-11T03:47:57.715Z,73.30
2019-01-11T03:48:57.646Z,72.82
2019-01-11T03:49:57.646Z,72.25
2019-01-11T03:50:57.648Z,72.34
2019-01-11T03:51:57.647Z,72.44
2019-01-11T03:52:57.722Z,73.30
2019-01-11T03:53:57.676Z,73.86
2019-01-11T03:54:57.733Z,73.68
2019-01-11T03:55:57.733Z,73.77
2019-01-11T03:56:57.808Z,73.77
2019-01-11T03:57:57.825Z,73.86
2019-01-11T03:58:57.764Z,74.24
2019-01-11T03:59:57.767Z,74.43
2019-01-11T04:00:57.770Z,73.49
2019-01-11T04:01:57.819Z,73.30
2019-01-11T04:02:57.889Z,73.39
2019-01-11T04:03:57.816Z,73.58
2019-01-11T04:04:57.881Z,73.30
2019-01-11T04:05:57.854Z,73.20
2019-01-11T04:06:57.855Z,73.30
2019-01-11T04:07:57.954Z,72.92
2019-01-11T04:08:57.916Z,73.30
2019-01-11T04:09:57.919Z,73.96
2019-01-11T04:10:57.911Z,74.71
2019-01-11T04:11:57.941Z,74.62
2019-01-11T04:12:57.975Z,75.19
2019-01-11T04:13:57.961Z,74.43
2019-01-11T04:14:58.015Z,74.56
2019-01-11T04:15:57.977Z,74.62
2019-01-11T04:16:58.011Z,74.05
2019-01-11T04:17:58.075Z,74.15
2019-01-11T04:18:58.038Z,74.52
2019-01-11T04:20:01.956Z,74.62
2019-01-11T04:20:58.051Z,73.86
2019-01-11T04:21:58.073Z,73.96
2019-01-11T04:22:58.090Z,73.77
2019-01-11T04:23:58.097Z,74.52
2019-01-11T04:24:58.148Z,74.15
2019-01-11T04:25:58.130Z,74.24
2019-01-11T04:26:58.152Z,74.28
2019-01-11T04:27:58.142Z,74.71
2019-01-11T04:28:58.160Z,74.62
2019-01-11T04:29:58.174Z,74.56
2019-01-11T04:30:58.208Z,73.99
2019-01-11T04:31:58.203Z,74.95
2019-01-11T04:32:58.224Z,75.13
2019-01-11T04:33:58.240Z,74.85
2019-01-11T04:34:58.247Z,75.32
2019-01-11T04:35:58.265Z,75.51
2019-01-11T04:36:58.326Z,74.75
2019-01-11T04:37:58.325Z,75.04
2019-01-11T04:38:58.310Z,74.18
2019-01-11T04:39:58.319Z,74.47
2019-01-11T04:40:58.351Z,75.04
2019-01-11T04:41:58.375Z,75.13
2019-01-11T04:42:58.394Z,75.79
2019-01-11T04:43:58.379Z,75.51
2019-01-11T04:44:58.399Z,75.98
2019-01-11T04:45:58.401Z,75.32
2019-01-11T04:46:58.432Z,75.13
2019-01-11T04:47:58.442Z,75.23
2019-01-11T04:48:58.458Z,75.23
2019-01-11T04:49:58.455Z,74.95
2019-01-11T04:50:58.473Z,75.23
2019-01-11T04:51:58.482Z,75.98
2019-01-11T04:52:58.559Z,75.51
2019-01-11T04:53:58.514Z,75.70
2019-01-11T04:54:58.528Z,75.60
2019-01-11T04:55:58.540Z,75.13
2019-01-11T04:56:58.685Z,75.98
2019-01-11T04:57:58.582Z,76.55
2019-01-11T04:58:58.582Z,76.36
2019-01-11T04:59:58.615Z,76.08
2019-01-11T05:00:58.615Z,76.46
2019-01-11T05:01:58.635Z,76.36
2019-01-11T05:02:58.640Z,75.79
2019-01-11T05:03:58.705Z,76.08
2019-01-11T05:04:58.788Z,76.17
2019-01-11T05:05:58.695Z,77.03
2019-01-11T05:06:58.697Z,76.55
2019-01-11T05:07:58.744Z,76.93
2019-01-11T05:08:58.722Z,77.03
2019-01-11T05:09:58.779Z,77.12
2019-01-11T05:10:58.774Z,76.93
2019-01-11T05:11:58.771Z,76.84
2019-01-11T05:12:58.799Z,77.40
2019-01-11T05:13:58.794Z,76.08
2019-01-11T05:14:58.817Z,76.08
2019-01-11T05:15:58.845Z,75.89
2019-01-11T05:16:58.864Z,76.55
2019-01-11T05:17:58.866Z,76.84
2019-01-11T05:18:58.872Z,77.12
2019-01-11T05:19:58.901Z,77.12
2019-01-11T05:20:58.901Z,77.78
2019-01-11T05:21:58.940Z,78.07
2019-01-11T05:22:58.927Z,77.50
2019-01-11T05:23:58.964Z,77.69
2019-01-11T05:24:58.985Z,77.59
2019-01-11T05:25:58.984Z,78.26
2019-01-11T05:26:59.031Z,77.88
2019-01-11T05:27:59.039Z,78.07
2019-01-11T05:28:59.051Z,78.16
2019-01-11T05:29:59.056Z,76.93
2019-01-11T05:30:59.046Z,77.40
2019-01-11T05:31:59.059Z,77.59
2019-01-11T05:32:59.072Z,78.07
2019-01-11T05:33:59.086Z,78.07
2019-01-11T05:34:59.129Z,76.27
2019-01-11T05:35:59.125Z,77.12
2019-01-11T05:36:59.123Z,77.50
2019-01-11T05:37:59.175Z,77.22
2019-01-11T05:38:59.175Z,77.78
2019-01-11T05:39:59.188Z,77.97
2019-01-11T05:40:59.185Z,77.50
2019-01-11T05:41:59.209Z,77.03
2019-01-11T05:42:59.211Z,77.50
2019-01-11T05:43:59.232Z,78.35
2019-01-11T05:44:59.250Z,78.07
2019-01-11T05:45:59.328Z,77.50
2019-01-11T05:46:59.281Z,78.07
2019-01-11T05:47:59.317Z,77.59
2019-01-11T05:48:59.311Z,76.84
2019-01-11T05:49:59.327Z,77.50
2019-01-11T05:50:59.349Z,77.59
2019-01-11T05:51:59.345Z,77.78
2019-01-11T05:52:59.364Z,77.69
2019-01-11T05:53:59.430Z,78.35
2019-01-11T05:54:59.387Z,78.54
2019-01-11T05:55:59.402Z,78.83
2019-01-11T05:56:59.414Z,78.35
2019-01-11T05:57:59.436Z,78.26
2019-01-11T05:58:59.442Z,78.83
2019-01-11T05:59:59.522Z,78.92
2019-01-11T06:00:59.476Z,78.83
2019-01-11T06:01:59.500Z,77.97
2019-01-11T06:02:59.509Z,79.21
2019-01-11T06:03:59.515Z,79.02
2019-01-11T06:04:59.583Z,79.11
2019-01-11T06:05:59.561Z,79.15
2019-01-11T06:06:59.558Z,79.82
2019-01-11T06:07:59.624Z,78.96
2019-01-11T06:08:59.654Z,78.35
2019-01-11T06:09:59.682Z,78.26
2019-01-11T06:10:59.634Z,77.59
2019-01-11T06:11:59.648Z,77.50
2019-01-11T06:12:59.725Z,77.12
2019-01-11T06:13:59.662Z,76.08
2019-01-11T06:14:59.772Z,76.08
2019-01-11T06:15:59.698Z,76.55
2019-01-11T06:16:59.706Z,76.36
2019-01-11T06:17:59.791Z,75.98
2019-01-11T06:18:59.732Z,75.98
2019-01-11T06:19:59.836Z,76.08
2019-01-11T06:20:59.807Z,75.89
2019-01-11T06:21:59.790Z,75.60
2019-01-11T06:22:59.788Z,75.98
2019-01-11T06:23:59.804Z,77.03
2019-01-11T06:24:59.817Z,76.84
2019-01-11T06:25:59.964Z,75.89
2019-01-11T06:26:59.885Z,76.17
2019-01-11T06:27:59.860Z,76.36
2019-01-11T06:28:59.881Z,76.08
2019-01-11T06:29:59.890Z,75.79
2019-01-11T06:30:59.908Z,75.60
2019-01-11T06:31:59.959Z,75.32
2019-01-11T06:32:59.991Z,74.28
2019-01-11T06:33:59.958Z,74.37
2019-01-11T06:34:59.982Z,75.23
2019-01-11T06:35:59.998Z,75.23
2019-01-11T06:36:59.994Z,75.51
2019-01-11T06:38:00.034Z,75.98
2019-01-11T06:39:00.031Z,75.89
2019-01-11T06:40:00.224Z,76.17
2019-01-11T06:41:00.046Z,75.42
2019-01-11T06:42:00.065Z,75.89
2019-01-11T06:43:03.470Z,75.42
2019-01-11T06:44:00.091Z,74.95
2019-01-11T06:45:00.221Z,75.60
2019-01-11T06:46:00.153Z,75.51
2019-01-11T06:47:00.158Z,75.79
2019-01-11T06:48:00.174Z,76.46
2019-01-11T06:49:00.175Z,75.89
2019-01-11T06:50:00.249Z,76.27
2019-01-11T06:51:00.191Z,76.84
2019-01-11T06:52:00.244Z,76.08
2019-01-11T06:53:00.221Z,76.08
2019-01-11T06:54:00.234Z,77.40
2019-01-11T06:55:00.253Z,78.30
2019-01-11T06:56:00.298Z,78.30
2019-01-11T06:57:00.383Z,78.67
2019-01-11T06:58:00.307Z,77.59
2019-01-11T06:59:00.340Z,77.22
2019-01-11T07:00:00.365Z,78.35
2019-01-11T07:01:00.353Z,78.20
2019-01-11T07:02:00.351Z,78.77
2019-01-11T07:03:00.360Z,77.50
2019-01-11T07:04:00.383Z,76.65
2019-01-11T07:05:00.396Z,77.54
2019-01-11T07:06:00.433Z,77.92
2019-01-11T07:07:00.435Z,78.30
2019-01-11T07:08:00.465Z,78.30
2019-01-11T07:09:00.457Z,78.02
2019-01-11T07:10:00.464Z,77.54
2019-01-11T07:11:00.533Z,77.06
2019-01-11T07:12:00.509Z,77.45
2019-01-11T07:13:00.518Z,77.54
2019-01-11T07:14:00.526Z,78.02
2019-01-11T07:15:00.546Z,78.30
2019-01-11T07:16:00.560Z,78.11
2019-01-11T07:17:00.632Z,78.20
2019-01-11T07:18:00.612Z,78.87
2019-01-11T07:19:00.594Z,79.63
2019-01-11T07:20:05.521Z,78.67
2019-01-11T07:21:00.625Z,78.49
2019-01-11T07:22:00.646Z,78.11
2019-01-11T07:23:00.669Z,78.20
2019-01-11T07:24:01.081Z,78.39
2019-01-11T07:25:00.682Z,77.64
2019-01-11T07:26:00.718Z,77.35
2019-01-11T07:27:00.753Z,76.65
2019-01-11T07:28:00.780Z,76.08
2019-01-11T07:29:00.740Z,77.45
2019-01-11T07:30:00.778Z,77.83
2019-01-11T07:31:00.818Z,77.54
2019-01-11T07:32:00.782Z,77.64
2019-01-11T07:33:00.823Z,76.40
2019-01-11T07:34:00.828Z,76.59
2019-01-11T07:35:00.839Z,76.68
2019-01-11T07:36:00.970Z,77.25
2019-01-11T07:37:00.886Z,77.83
2019-01-11T07:38:00.880Z,77.83
2019-01-11T07:39:00.918Z,77.73
2019-01-11T07:40:00.955Z,77.45
2019-01-11T07:41:00.924Z,77.83
2019-01-11T07:42:00.930Z,77.45
2019-01-11T07:43:01.018Z,77.83
2019-01-11T07:44:00.980Z,77.35
2019-01-11T07:45:01.026Z,77.16
2019-01-11T07:46:01.007Z,76.68
2019-01-11T07:47:01.015Z,76.03
2019-01-11T07:48:01.035Z,76.50
2019-01-11T07:49:01.104Z,76.40
2019-01-11T07:50:01.105Z,76.68
2019-01-11T07:51:01.061Z,77.45
2019-01-11T07:52:01.072Z,76.87
2019-01-11T07:53:01.112Z,76.12
2019-01-11T07:54:01.110Z,75.64
2019-01-11T07:55:01.142Z,76.12
2019-01-11T07:56:01.151Z,77.06
2019-01-11T07:57:01.197Z,76.03
2019-01-11T07:58:01.162Z,75.36
2019-01-11T07:59:01.420Z,75.26
2019-01-11T08:00:01.227Z,75.64
2019-01-11T08:01:01.205Z,76.31
2019-01-11T08:02:01.227Z,76.87
2019-01-11T08:03:01.261Z,76.03
2019-01-11T08:04:01.251Z,74.51
2019-01-11T08:05:01.278Z,74.22
2019-01-11T08:06:01.310Z,74.32
2019-01-11T08:07:01.303Z,74.66
2019-01-11T08:08:01.335Z,74.66
2019-01-11T08:09:01.342Z,74.98
2019-01-11T08:10:01.347Z,75.07
2019-01-11T08:11:01.367Z,74.51
2019-01-11T08:12:01.419Z,74.69
2019-01-11T08:13:01.383Z,75.36
2019-01-11T08:14:01.402Z,74.56
2019-01-11T08:15:01.438Z,73.33
2019-01-11T08:16:01.430Z,73.61
2019-01-11T08:17:01.448Z,74.09
2019-01-11T08:18:01.485Z,74.51
2019-01-11T08:19:01.488Z,75.36
2019-01-11T08:20:01.491Z,75.74
2019-01-11T08:21:01.517Z,75.74
2019-01-11T08:22:01.519Z,76.31
2019-01-11T08:23:01.541Z,76.21
2019-01-11T08:24:01.563Z,76.68
2019-01-11T08:25:01.559Z,76.50
2019-01-11T08:26:01.598Z,76.12
2019-01-11T08:27:01.590Z,76.68
2019-01-11T08:28:01.604Z,76.87
2019-01-11T08:29:01.622Z,76.59
2019-01-11T08:30:01.630Z,77.16
2019-01-11T08:31:01.698Z,77.54
2019-01-11T08:32:01.662Z,77.83
2019-01-11T08:33:01.693Z,77.64
2019-01-11T08:34:01.691Z,75.07
2019-01-11T08:35:01.761Z,75.26
2019-01-11T08:36:01.761Z,75.36
2019-01-11T08:37:01.734Z,74.69
2019-01-11T08:38:01.746Z,74.66
2019-01-11T08:39:01.773Z,74.09
2019-01-11T08:40:01.777Z,73.52
2019-01-11T08:41:01.796Z,73.52
2019-01-11T08:42:01.815Z,73.33
2019-01-11T08:43:01.834Z,73.61
2019-01-11T08:44:01.840Z,73.14
2019-01-11T08:45:01.870Z,73.14
2019-01-11T08:46:01.862Z,73.80
2019-01-11T08:47:01.878Z,73.61
2019-01-11T08:48:01.903Z,73.80
2019-01-11T08:49:01.921Z,74.66
2019-01-11T08:50:01.980Z,74.69
2019-01-11T08:51:02.747Z,73.80
2019-01-11T08:52:01.953Z,74.69
2019-01-11T08:53:01.965Z,74.98
2019-01-11T08:54:02.009Z,75.26
2019-01-11T08:55:01.994Z,75.64
2019-01-11T08:56:08.090Z,75.45
2019-01-11T08:57:02.028Z,75.26
2019-01-11T08:58:02.070Z,75.17
2019-01-11T08:59:02.054Z,74.32
2019-01-11T09:00:02.070Z,74.22
2019-01-11T09:01:02.081Z,74.22
2019-01-11T09:02:02.092Z,75.26
2019-01-11T09:03:02.106Z,75.26
2019-01-11T09:04:02.141Z,75.84
2019-01-11T09:05:02.138Z,76.12
2019-01-11T09:06:02.160Z,76.87
2019-01-11T09:07:02.214Z,76.78
2019-01-11T09:08:02.181Z,76.31
2019-01-11T09:09:02.194Z,76.21
2019-01-11T09:10:02.218Z,76.03
2019-01-11T09:11:02.247Z,76.59
2019-01-11T09:12:02.262Z,76.59
2019-01-11T09:13:02.364Z,75.26
2019-01-11T09:14:02.272Z,75.07
2019-01-11T09:15:02.325Z,73.75
2019-01-11T09:16:02.301Z,73.33
2019-01-11T09:17:02.314Z,74.03
2019-01-11T09:18:02.332Z,74.88
2019-01-11T09:19:02.360Z,75.55
2019-01-11T09:20:02.362Z,75.36
2019-01-11T09:21:02.385Z,76.03
2019-01-11T09:22:02.410Z,75.64
2019-01-11T09:23:02.406Z,75.36
2019-01-11T09:24:02.426Z,74.60
2019-01-11T09:25:02.436Z,75.17
2019-01-11T09:26:02.458Z,74.51
2019-01-11T09:27:02.477Z,75.36
2019-01-11T09:28:02.513Z,76.97
2019-01-11T09:29:02.555Z,77.64
2019-01-11T09:30:02.541Z,77.54
2019-01-11T09:31:02.551Z,78.30
2019-01-11T09:32:02.536Z,77.58
2019-01-11T09:33:02.545Z,78.15
2019-01-11T09:34:02.561Z,77.86
2019-01-11T09:35:02.689Z,77.86
2019-01-11T09:36:02.614Z,77.67
2019-01-11T09:37:02.615Z,78.43
2019-01-11T09:38:02.645Z,77.96
2019-01-11T09:39:02.656Z,76.92
2019-01-11T09:40:02.662Z,76.34
2019-01-11T09:41:02.666Z,76.34
2019-01-11T09:42:02.684Z,76.44
2019-01-11T09:43:02.694Z,76.54
2019-01-11T09:44:02.713Z,76.44
2019-01-11T09:45:02.739Z,76.06
2019-01-11T09:46:02.740Z,75.59
2019-01-11T09:47:02.764Z,75.68
2019-01-11T09:48:02.784Z,75.21
2019-01-11T09:49:02.786Z,74.69
2019-01-11T09:50:02.811Z,74.41
2019-01-11T09:51:02.838Z,75.11
2019-01-11T09:52:02.855Z,74.64
2019-01-11T09:53:02.854Z,74.54
2019-01-11T09:54:02.865Z,74.45
2019-01-11T09:55:02.890Z,73.84
2019-01-11T09:56:02.942Z,73.27
2019-01-11T09:57:02.915Z,72.71
2019-01-11T09:58:02.930Z,72.23
2019-01-11T09:59:03.048Z,72.14
2019-01-11T10:00:02.969Z,73.18
2019-01-11T10:01:02.985Z,74.22
2019-01-11T10:02:02.983Z,74.16
2019-01-11T10:03:03.012Z,73.75
2019-01-11T10:04:03.026Z,73.60
2019-01-11T10:05:03.040Z,73.69
2019-01-11T10:06:03.040Z,73.69
2019-01-11T10:07:03.064Z,72.89
2019-01-11T10:08:03.117Z,73.46
2019-01-11T10:09:03.099Z,73.50
2019-01-11T10:10:03.125Z,74.16
2019-01-11T10:11:03.119Z,74.45
2019-01-11T10:12:03.137Z,74.26
2019-01-11T10:13:03.149Z,74.45
2019-01-11T10:14:03.175Z,74.73
2019-01-11T10:15:03.208Z,74.92
2019-01-11T10:16:03.193Z,74.45
2019-01-11T10:17:03.204Z,74.73
2019-01-11T10:18:03.244Z,74.73
2019-01-11T10:19:03.231Z,75.21
2019-01-11T10:20:03.257Z,75.21
2019-01-11T10:21:03.285Z,75.68
2019-01-11T10:22:03.300Z,75.31
2019-01-11T10:23:03.299Z,75.40
2019-01-11T10:24:03.342Z,75.02
2019-01-11T10:25:03.339Z,75.68
2019-01-11T10:26:03.345Z,75.49
2019-01-11T10:27:03.371Z,75.96
2019-01-11T10:28:03.391Z,76.63
2019-01-11T10:29:03.399Z,76.63
2019-01-11T10:30:03.537Z,75.87
2019-01-11T10:31:03.416Z,75.68
2019-01-11T10:32:03.427Z,76.06
2019-01-11T10:33:03.480Z,76.15
2019-01-11T10:34:03.475Z,75.31
2019-01-11T10:35:03.475Z,75.21
2019-01-11T10:36:03.505Z,74.83
2019-01-11T10:37:03.514Z,74.26
2019-01-11T10:38:03.535Z,73.79
2019-01-11T10:39:03.550Z,73.12
2019-01-11T10:40:03.558Z,73.31
2019-01-11T10:41:03.572Z,72.36
2019-01-11T10:42:03.583Z,72.23
2019-01-11T10:43:03.599Z,71.95
2019-01-11T10:44:03.619Z,71.57
2019-01-11T10:45:03.642Z,71.85
2019-01-11T10:46:03.667Z,71.66
2019-01-11T10:47:03.671Z,71.32
2019-01-11T10:48:03.679Z,71.28
2019-01-11T10:49:03.687Z,71.09
2019-01-11T10:50:03.700Z,71.89
2019-01-11T10:51:03.732Z,72.27
2019-01-11T10:52:03.763Z,71.98
2019-01-11T10:53:03.767Z,73.41
2019-01-11T10:54:03.791Z,73.31
2019-01-11T10:55:03.819Z,73.88
2019-01-11T10:56:03.801Z,71.70
2019-01-11T10:57:03.808Z,71.22
2019-01-11T10:58:03.951Z,70.94
2019-01-11T10:59:03.860Z,72.17
2019-01-11T11:00:03.863Z,73.60
2019-01-11T11:01:03.872Z,74.07
2019-01-11T11:02:04.044Z,75.02
2019-01-11T11:03:03.906Z,75.02
2019-01-11T11:04:03.916Z,74.54
2019-01-11T11:05:03.945Z,74.54
2019-01-11T11:06:03.968Z,75.40
2019-01-11T11:07:03.967Z,74.35
2019-01-11T11:08:03.993Z,75.11
2019-01-11T11:09:04.039Z,76.25
2019-01-11T11:10:04.015Z,75.49
2019-01-11T11:11:04.048Z,74.83
2019-01-11T11:12:04.042Z,75.21
2019-01-11T11:13:04.066Z,74.54
2019-01-11T11:14:04.119Z,73.69
2019-01-11T11:15:04.138Z,73.03
2019-01-11T11:16:04.095Z,72.64
2019-01-11T11:17:04.114Z,72.45
2019-01-11T11:18:04.140Z,73.60
2019-01-11T11:19:04.152Z,73.50
2019-01-11T11:20:04.177Z,72.08
2019-01-11T11:21:04.207Z,71.32
2019-01-11T11:22:04.226Z,70.75
2019-01-11T11:23:04.270Z,71.03
2019-01-11T11:24:04.217Z,70.84
2019-01-11T11:25:04.262Z,70.75
2019-01-11T11:26:04.263Z,71.41
2019-01-11T11:27:04.266Z,72.55
2019-01-11T11:28:04.348Z,73.60
2019-01-11T11:29:04.309Z,74.16
2019-01-11T11:30:04.318Z,73.88
2019-01-11T11:31:04.334Z,73.31
2019-01-11T11:32:04.337Z,72.08
2019-01-11T11:33:04.358Z,71.70
2019-01-11T11:34:04.373Z,71.80
2019-01-11T11:35:04.389Z,71.80
2019-01-11T11:36:04.410Z,71.22
2019-01-11T11:37:04.420Z,71.03
2019-01-11T11:38:04.431Z,71.22
2019-01-11T11:39:04.449Z,71.80
2019-01-11T11:40:04.464Z,73.31
2019-01-11T11:41:04.484Z,73.88
2019-01-11T11:42:04.490Z,73.97
2019-01-11T11:43:04.537Z,71.80
2019-01-11T11:44:04.525Z,72.36
2019-01-11T11:45:04.584Z,72.68
2019-01-11T11:46:04.559Z,72.45
2019-01-11T11:47:04.567Z,72.45
2019-01-11T11:48:04.631Z,72.55
2019-01-11T11:49:04.618Z,73.31
2019-01-11T11:50:04.626Z,72.36
2019-01-11T11:51:04.635Z,71.51
2019-01-11T11:52:04.643Z,71.70
2019-01-11T11:53:04.680Z,72.17
2019-01-11T11:54:04.677Z,72.27
2019-01-11T11:55:04.691Z,71.13
2019-01-11T11:56:04.717Z,71.03
2019-01-11T11:57:04.720Z,71.13
2019-01-11T11:58:04.795Z,70.75
2019-01-11T11:59:04.749Z,71.13
2019-01-11T12:00:04.767Z,69.80
2019-01-11T12:01:04.788Z,69.99
2019-01-11T12:02:04.815Z,70.18
2019-01-11T12:03:04.811Z,69.80
2019-01-11T12:04:04.838Z,69.13
2019-01-11T12:05:04.850Z,69.13
2019-01-11T12:06:04.867Z,69.04
2019-01-11T12:07:07.740Z,69.13
2019-01-11T12:08:04.904Z,70.09
2019-01-11T12:09:04.947Z,69.42
2019-01-11T12:10:04.946Z,69.13
2019-01-11T12:11:04.954Z,68.76
2019-01-11T12:12:04.955Z,68.38
2019-01-11T12:13:04.990Z,68.00
2019-01-11T12:14:04.989Z,69.23
2019-01-11T12:15:05.020Z,70.47
2019-01-11T12:16:05.032Z,71.36
2019-01-11T12:17:05.042Z,69.13
2019-01-11T12:18:05.060Z,68.38
2019-01-11T12:19:05.059Z,69.52
2019-01-11T12:20:05.101Z,70.03
2019-01-11T12:21:05.100Z,68.66
2019-01-11T12:22:05.106Z,68.00
2019-01-11T12:23:05.121Z,68.19
2019-01-11T12:24:05.174Z,68.29
2019-01-11T12:25:05.147Z,68.48
2019-01-11T12:26:05.231Z,68.29
2019-01-11T12:27:05.178Z,68.19
2019-01-11T12:28:05.204Z,67.71
2019-01-11T12:29:05.208Z,67.43
2019-01-11T12:30:05.237Z,66.96
2019-01-11T12:31:05.306Z,66.96
2019-01-11T12:32:05.279Z,66.77
2019-01-11T12:33:05.293Z,66.86
2019-01-11T12:34:05.330Z,67.24
2019-01-11T12:35:05.304Z,66.39
2019-01-11T12:36:05.343Z,65.44
2019-01-11T12:37:05.369Z,65.44
2019-01-11T12:38:05.376Z,65.34
2019-01-11T12:39:05.370Z,66.58
2019-01-11T12:40:05.383Z,66.67
2019-01-11T12:41:05.390Z,66.39
2019-01-11T12:42:05.449Z,66.20
2019-01-11T12:43:05.419Z,67.52
2019-01-11T12:44:05.440Z,67.62
2019-01-11T12:45:05.481Z,67.81
2019-01-11T12:46:05.468Z,67.33
2019-01-11T12:47:05.497Z,67.71
2019-01-11T12:48:05.495Z,67.81
2019-01-11T12:49:05.527Z,67.14
2019-01-11T12:50:05.529Z,67.62
2019-01-11T12:51:05.551Z,68.29
2019-01-11T12:52:05.562Z,68.23
2019-01-11T12:53:05.596Z,68.70